Time;durP1;ratioP1;P1;durP2;ratioP2;P2;SDS_P1;SDS_P2;PMS_P1;PMS_P2;Temp;Humidity;BMP_temperature;BMP_pressure;BME280_temperature;BME280_humidity;BME280_pressure;Samples;Min_cycle;Max_cycle;Signal;HPM_P1;HPM_P2
2022/03/06 00:00:47;;;;;;;18.02;10.10;;;5.90;42.80;;;;;;4957266;28;20027;-77
2022/03/06 00:03:13;;;;;;;20.10;10.77;;;5.90;42.80;;;;;;4957334;28;20106;-81
2022/03/06 00:05:39;;;;;;;17.60;9.73;;;5.80;42.80;;;;;;4957224;28;20524;-79
2022/03/06 00:08:06;;;;;;;17.13;9.80;;;5.80;42.80;;;;;;4957193;28;20030;-81
2022/03/06 00:10:33;;;;;;;21.17;10.07;;;5.80;42.90;;;;;;4957136;28;20015;-80
2022/03/06 00:12:59;;;;;;;20.25;11.20;;;5.70;42.80;;;;;;4957332;28;20031;-79
2022/03/06 00:15:26;;;;;;;19.08;10.63;;;5.70;42.80;;;;;;4957111;28;20020;-78
2022/03/06 00:17:52;;;;;;;19.50;11.23;;;5.60;42.80;;;;;;4971963;28;20031;-78
2022/03/06 00:20:19;;;;;;;20.00;9.48;;;5.60;42.80;;;;;;4957179;28;20496;-80
2022/03/06 00:22:44;;;;;;;17.10;9.45;;;5.60;42.80;;;;;;4957142;28;20027;-74
2022/03/06 00:25:10;;;;;;;19.13;10.70;;;5.60;42.90;;;;;;4956746;28;20147;-76
2022/03/06 00:27:36;;;;;;;21.23;8.93;;;5.60;42.90;;;;;;4956889;28;20030;-77
2022/03/06 00:30:04;;;;;;;18.90;9.98;;;5.50;42.80;;;;;;4956987;28;20385;-77
2022/03/06 00:32:29;;;;;;;18.23;10.70;;;5.50;42.90;;;;;;4956766;28;20023;-80
2022/03/06 00:34:55;;;;;;;19.67;10.32;;;5.40;42.90;;;;;;4956899;28;20055;-82
2022/03/06 00:37:21;;;;;;;18.30;10.40;;;5.40;43.00;;;;;;4956801;28;20028;-77
2022/03/06 00:39:47;;;;;;;16.88;9.65;;;5.40;42.90;;;;;;4956645;28;20102;-78
2022/03/06 00:42:12;;;;;;;19.08;9.20;;;5.30;42.90;;;;;;4956728;28;20035;-82
2022/03/06 00:44:38;;;;;;;17.55;9.63;;;5.40;43.00;;;;;;4956463;28;20054;-79
2022/03/06 00:47:05;;;;;;;18.10;9.98;;;5.30;43.00;;;;;;4956520;28;20028;-75
2022/03/06 00:49:31;;;;;;;16.60;8.95;;;5.30;43.00;;;;;;4955791;28;20027;-81
2022/03/06 00:51:58;;;;;;;18.05;9.82;;;5.30;43.00;;;;;;4956594;28;20529;-77
2022/03/06 00:54:24;;;;;;;20.00;10.00;;;5.30;43.00;;;;;;4956412;28;20023;-75
2022/03/06 00:56:50;;;;;;;19.15;9.95;;;5.20;43.00;;;;;;4955975;28;20098;-73
2022/03/06 00:59:15;;;;;;;17.48;9.40;;;5.20;43.00;;;;;;4956354;28;20398;-82
2022/03/06 01:01:41;;;;;;;19.60;9.50;;;5.20;42.90;;;;;;4956276;28;20541;-79
2022/03/06 01:04:08;;;;;;;17.30;9.50;;;5.20;42.90;;;;;;4956129;28;20489;-77
2022/03/06 01:06:33;;;;;;;16.90;9.35;;;5.20;42.90;;;;;;4956160;28;20035;-76
2022/03/06 01:08:59;;;;;;;18.80;9.98;;;5.20;42.90;;;;;;4956097;28;20090;-80
2022/03/06 01:11:25;;;;;;;19.00;9.38;;;5.20;42.80;;;;;;4956110;28;20430;-78
2022/03/06 01:13:51;;;;;;;17.15;9.30;;;5.20;42.90;;;;;;4956251;28;20023;-80
2022/03/06 01:16:17;;;;;;;17.00;9.20;;;5.10;42.70;;;;;;4954830;28;20054;-72
2022/03/06 01:18:43;;;;;;;17.63;9.15;;;5.10;42.60;;;;;;4955939;28;20469;-77
2022/03/06 01:21:09;;;;;;;20.08;9.68;;;5.10;42.60;;;;;;4970812;28;20027;-80
2022/03/06 01:23:35;;;;;;;17.80;9.60;;;5.10;42.60;;;;;;4955803;28;20019;-78
2022/03/06 01:26:02;;;;;;;18.23;9.75;;;5.10;42.60;;;;;;4955821;28;20102;-77
2022/03/06 01:28:28;;;;;;;20.50;8.32;;;5.10;42.60;;;;;;4955773;28;20019;-83
2022/03/06 01:30:54;;;;;;;18.85;9.57;;;5.10;42.60;;;;;;4970536;28;20042;-75
2022/03/06 01:33:19;;;;;;;18.90;8.75;;;5.10;42.60;;;;;;4955723;28;20083;-78
2022/03/06 01:35:45;;;;;;;16.95;9.52;;;5.10;42.50;;;;;;4955749;28;20038;-80
2022/03/06 01:38:11;;;;;;;19.05;9.88;;;5.10;42.60;;;;;;4955652;28;20102;-74
2022/03/06 01:40:37;;;;;;;17.90;9.07;;;5.10;42.50;;;;;;4955432;28;20034;-76
2022/03/06 01:43:03;;;;;;;17.20;9.30;;;5.10;42.50;;;;;;4955464;28;20051;-76
2022/03/06 01:45:29;;;;;;;18.50;8.73;;;5.00;42.50;;;;;;4955395;28;20039;-81
2022/03/06 01:47:55;;;;;;;18.50;9.98;;;5.00;42.50;;;;;;4954700;28;20468;-77
2022/03/06 01:50:30;;;;;;;21.23;10.10;;;5.00;42.50;;;;;;4955118;28;20082;-75
2022/03/06 01:52:58;;;;;;;23.23;9.75;;;5.00;42.60;;;;;;4954827;28;20042;-80
2022/03/06 01:55:26;;;;;;;15.98;8.23;;;5.00;42.60;;;;;;4955219;28;20039;-80
2022/03/06 01:57:57;;;;;;;17.27;8.93;;;5.00;42.60;;;;;;4955160;28;20074;-76
2022/03/06 02:00:32;;;;;;;18.58;8.93;;;4.90;42.50;;;;;;4955016;28;20062;-80
2022/03/06 02:02:58;;;;;;;19.35;10.57;;;4.90;42.50;;;;;;4970149;28;20401;-82
2022/03/06 02:05:24;;;;;;;18.13;9.65;;;4.90;42.50;;;;;;4955066;28;20034;-81
2022/03/06 02:07:49;;;;;;;16.77;9.35;;;4.90;42.60;;;;;;4955293;28;20020;-83
2022/03/06 02:10:16;;;;;;;17.83;9.38;;;4.90;42.60;;;;;;4955626;28;20046;-82
2022/03/06 02:12:43;;;;;;;16.63;9.65;;;4.90;42.50;;;;;;4955098;28;20035;-79
2022/03/06 02:15:10;;;;;;;16.20;8.77;;;4.90;42.40;;;;;;4970611;28;20106;-79
2022/03/06 02:17:37;;;;;;;17.88;9.07;;;4.90;42.50;;;;;;4955081;28;20031;-77
2022/03/06 02:20:11;;;;;;;17.48;9.48;;;4.90;42.40;;;;;;4954899;28;20118;-80
2022/03/06 02:22:42;;;;;;;18.27;10.33;;;4.90;42.30;;;;;;4954844;28;20031;-76
2022/03/06 02:25:17;;;;;;;17.00;9.00;;;4.90;42.40;;;;;;4954861;28;20023;-78
2022/03/06 02:27:43;;;;;;;19.13;9.85;;;4.90;42.40;;;;;;4954905;28;20026;-79
2022/03/06 02:30:12;;;;;;;17.05;8.88;;;4.90;42.40;;;;;;4954683;28;20030;-82
2022/03/06 02:32:39;;;;;;;17.90;9.75;;;4.90;42.40;;;;;;4954962;28;20035;-79
2022/03/06 02:35:07;;;;;;;18.05;9.32;;;4.90;42.40;;;;;;4954843;28;20019;-78
2022/03/06 02:37:33;;;;;;;17.67;9.43;;;4.90;42.40;;;;;;4954783;28;20023;-79
2022/03/06 02:40:00;;;;;;;17.40;9.90;;;4.90;42.40;;;;;;4954826;28;20381;-80
2022/03/06 02:42:31;;;;;;;19.08;10.20;;;4.90;42.50;;;;;;4954255;28;20074;-81
2022/03/06 02:44:58;;;;;;;20.65;8.98;;;4.80;42.40;;;;;;4954650;28;20026;-80
2022/03/06 02:47:25;;;;;;;20.30;9.57;;;4.80;42.50;;;;;;4954676;28;20092;-76
2022/03/06 02:49:51;;;;;;;19.02;9.27;;;4.80;42.50;;;;;;4954756;28;20074;-81
2022/03/06 02:52:18;;;;;;;18.05;9.18;;;4.80;42.50;;;;;;4954742;28;20023;-77
2022/03/06 02:54:44;;;;;;;20.25;10.18;;;4.80;42.50;;;;;;4969204;28;20031;-81
2022/03/06 02:57:10;;;;;;;17.80;10.23;;;4.70;42.50;;;;;;4954154;28;20093;-75
2022/03/06 02:59:36;;;;;;;16.98;9.55;;;4.70;42.50;;;;;;4954642;28;20035;-77
2022/03/06 03:02:04;;;;;;;20.42;9.70;;;4.70;42.60;;;;;;4954702;28;20028;-82
2022/03/06 03:04:31;;;;;;;17.08;9.20;;;4.70;42.60;;;;;;4954523;28;20019;-80
2022/03/06 03:06:57;;;;;;;16.50;9.32;;;4.70;42.60;;;;;;4954200;28;20031;-76
2022/03/06 03:09:25;;;;;;;18.17;9.38;;;4.70;42.60;;;;;;4954622;28;20031;-75
2022/03/06 03:11:51;;;;;;;21.52;9.60;;;4.70;42.50;;;;;;4969606;28;20032;-83
2022/03/06 03:14:17;;;;;;;17.00;9.50;;;4.70;42.50;;;;;;4958256;28;20050;-78
2022/03/06 03:16:43;;;;;;;20.45;10.38;;;4.70;42.50;;;;;;4957967;28;20413;-76
2022/03/06 03:19:09;;;;;;;17.13;9.32;;;4.70;42.50;;;;;;4958158;28;20027;-81
2022/03/06 03:21:35;;;;;;;20.30;9.35;;;4.70;42.50;;;;;;4958099;28;20075;-80
2022/03/06 03:24:01;;;;;;;17.40;9.98;;;4.70;42.40;;;;;;4958105;28;20484;-79
2022/03/06 03:26:27;;;;;;;16.90;9.32;;;4.70;42.20;;;;;;4957774;28;20031;-81
2022/03/06 03:28:53;;;;;;;18.65;9.65;;;4.70;42.20;;;;;;4972827;28;20020;-76
2022/03/06 03:31:19;;;;;;;17.75;9.73;;;4.70;42.10;;;;;;4973016;28;20019;-79
2022/03/06 03:33:45;;;;;;;18.73;9.15;;;4.80;42.00;;;;;;4958008;28;20022;-81
2022/03/06 03:36:11;;;;;;;17.63;9.55;;;4.80;41.90;;;;;;4957575;28;20120;-80
2022/03/06 03:38:40;;;;;;;18.00;9.40;;;4.80;41.80;;;;;;4962078;28;20415;-82
2022/03/06 03:41:08;;;;;;;18.80;9.13;;;4.90;41.80;;;;;;4975746;28;20030;-77
2022/03/06 03:43:34;;;;;;;16.30;9.18;;;4.90;41.80;;;;;;4972468;28;20026;-80
2022/03/06 03:45:59;;;;;;;17.52;8.73;;;4.90;41.70;;;;;;4957321;28;20034;-77
2022/03/06 03:48:29;;;;;;;20.70;9.98;;;5.00;41.70;;;;;;4957396;28;20027;-82
2022/03/06 03:50:56;;;;;;;21.98;9.75;;;5.00;41.70;;;;;;4957523;28;20038;-74
2022/03/06 03:53:23;;;;;;;18.77;10.18;;;5.00;41.70;;;;;;4957565;28;20023;-73
2022/03/06 03:55:49;;;;;;;18.48;9.57;;;5.00;41.90;;;;;;4957182;28;20257;-78
2022/03/06 03:58:15;;;;;;;17.88;9.77;;;5.10;42.10;;;;;;4948663;28;20494;-81
2022/03/06 04:00:43;;;;;;;21.60;9.95;;;5.00;42.20;;;;;;4954783;28;20447;-76
2022/03/06 04:03:08;;;;;;;19.52;10.23;;;5.00;42.50;;;;;;4971196;28;20108;-77
2022/03/06 04:05:34;;;;;;;19.75;9.70;;;5.00;42.50;;;;;;4962974;28;20063;-76
2022/03/06 04:08:00;;;;;;;17.05;9.55;;;5.00;42.60;;;;;;4950898;28;20024;-76
2022/03/06 04:10:26;;;;;;;18.33;8.98;;;5.00;42.70;;;;;;4940342;28;20023;-76
2022/03/06 04:12:51;;;;;;;18.10;9.15;;;5.00;42.60;;;;;;4950984;28;20051;-77
2022/03/06 04:15:17;;;;;;;21.23;10.48;;;5.00;42.60;;;;;;4953725;28;20062;-77
2022/03/06 04:17:43;;;;;;;18.17;9.18;;;5.00;42.50;;;;;;4952154;28;20034;-80
2022/03/06 04:20:09;;;;;;;18.65;9.00;;;4.90;42.40;;;;;;4964614;28;20026;-78
2022/03/06 04:22:34;;;;;;;16.73;8.70;;;4.90;42.40;;;;;;4945553;28;20038;-80
2022/03/06 04:25:00;;;;;;;15.88;7.75;;;4.90;42.50;;;;;;4950838;28;20065;-82
2022/03/06 04:27:26;;;;;;;14.98;7.30;;;4.80;42.50;;;;;;4955856;28;20015;-74
2022/03/06 04:29:52;;;;;;;16.98;8.20;;;4.80;42.60;;;;;;4956486;28;20540;-81
2022/03/06 04:32:18;;;;;;;20.77;8.88;;;4.80;42.70;;;;;;4956394;28;20027;-77
2022/03/06 04:34:44;;;;;;;14.23;8.30;;;4.70;42.90;;;;;;4954997;28;20074;-77
2022/03/06 04:37:10;;;;;;;16.33;8.75;;;4.70;42.80;;;;;;4954747;28;20485;-76
2022/03/06 04:39:35;;;;;;;16.35;8.77;;;4.60;43.00;;;;;;4956588;28;20031;-77
2022/03/06 04:42:01;;;;;;;15.88;8.25;;;4.60;43.00;;;;;;4956316;28;20063;-81
2022/03/06 04:44:27;;;;;;;15.77;8.10;;;4.60;43.00;;;;;;4956639;28;20098;-79
2022/03/06 04:46:53;;;;;;;14.38;7.60;;;4.60;43.10;;;;;;4956045;28;20036;-77
2022/03/06 04:49:18;;;;;;;17.20;9.95;;;4.50;43.10;;;;;;4971920;28;20027;-76
2022/03/06 04:51:44;;;;;;;18.75;9.77;;;4.50;43.10;;;;;;4957708;28;20024;-76
2022/03/06 04:54:10;;;;;;;16.33;8.20;;;4.50;43.20;;;;;;4957339;28;20100;-78
2022/03/06 04:56:36;;;;;;;18.27;8.05;;;4.40;43.20;;;;;;4957205;28;20114;-73
2022/03/06 04:59:03;;;;;;;15.10;8.10;;;4.40;43.20;;;;;;4971781;28;20050;-76
2022/03/06 05:01:29;;;;;;;13.05;7.53;;;4.40;43.20;;;;;;4957076;28;20041;-78
2022/03/06 05:03:56;;;;;;;15.10;8.10;;;4.40;43.20;;;;;;4957297;28;20028;-73
2022/03/06 05:06:22;;;;;;;18.20;9.32;;;4.40;43.30;;;;;;4957339;28;20023;-76
2022/03/06 05:08:48;;;;;;;16.58;9.85;;;4.30;43.40;;;;;;4957185;28;20032;-76
2022/03/06 05:11:15;;;;;;;16.33;9.02;;;4.30;43.50;;;;;;4956227;28;20015;-79
2022/03/06 05:13:40;;;;;;;19.23;9.15;;;4.30;43.50;;;;;;4955953;28;20034;-78
2022/03/06 05:16:06;;;;;;;15.70;9.00;;;4.30;43.60;;;;;;4955663;28;20023;-79
2022/03/06 05:18:32;;;;;;;20.23;9.55;;;4.30;43.60;;;;;;4955806;28;20055;-79
2022/03/06 05:20:58;;;;;;;14.20;8.55;;;4.30;43.70;;;;;;4955736;28;20474;-79
2022/03/06 05:23:23;;;;;;;20.35;9.18;;;4.30;43.80;;;;;;4955487;28;20023;-79
2022/03/06 05:25:49;;;;;;;18.70;9.65;;;4.30;43.80;;;;;;4955671;28;20031;-74
2022/03/06 05:28:15;;;;;;;19.38;9.70;;;4.30;43.90;;;;;;4955644;28;20027;-78
2022/03/06 05:30:42;;;;;;;14.50;8.07;;;4.30;43.90;;;;;;4955918;28;20032;-80
2022/03/06 05:33:07;;;;;;;17.98;9.30;;;4.30;44.00;;;;;;4955793;28;20026;-75
2022/03/06 05:35:33;;;;;;;18.83;9.35;;;4.30;44.10;;;;;;4954651;28;20027;-77
2022/03/06 05:37:59;;;;;;;18.88;9.32;;;4.30;44.10;;;;;;4955707;28;20831;-74
2022/03/06 05:40:25;;;;;;;16.80;9.05;;;4.30;44.10;;;;;;4955527;28;20469;-76
2022/03/06 05:42:51;;;;;;;20.40;10.45;;;4.30;44.20;;;;;;4955629;28;20027;-79
2022/03/06 05:45:17;;;;;;;19.17;9.52;;;4.30;44.40;;;;;;4970128;28;20035;-78
2022/03/06 05:47:43;;;;;;;16.67;9.75;;;4.20;44.40;;;;;;4955334;28;20031;-79
2022/03/06 05:50:09;;;;;;;19.20;8.63;;;4.20;44.40;;;;;;4955422;28;20012;-79
2022/03/06 05:52:35;;;;;;;15.73;8.63;;;4.20;44.50;;;;;;4955431;28;20477;-79
2022/03/06 05:55:03;;;;;;;14.85;8.40;;;4.20;44.50;;;;;;4955458;28;20023;-76
2022/03/06 05:57:29;;;;;;;14.23;8.00;;;4.20;44.40;;;;;;4954894;28;20117;-80
2022/03/06 05:59:55;;;;;;;16.15;8.35;;;4.20;44.60;;;;;;4954818;28;20110;-77
2022/03/06 06:02:21;;;;;;;18.23;9.40;;;4.20;44.60;;;;;;4954737;28;20461;-78
2022/03/06 06:04:48;;;;;;;20.48;9.73;;;4.20;44.60;;;;;;4955448;28;20015;-79
2022/03/06 06:07:14;;;;;;;20.05;10.27;;;4.20;44.60;;;;;;4955157;28;20488;-75
2022/03/06 06:09:40;;;;;;;19.25;10.00;;;4.20;44.80;;;;;;4955130;28;20027;-77
2022/03/06 06:12:06;;;;;;;17.70;10.15;;;4.30;44.80;;;;;;4954730;28;20034;-75
2022/03/06 06:14:32;;;;;;;18.92;9.88;;;4.30;44.70;;;;;;4953194;28;20023;-77
2022/03/06 06:16:58;;;;;;;18.35;8.55;;;4.30;44.80;;;;;;4954394;28;20600;-77
2022/03/06 06:19:24;;;;;;;21.27;10.05;;;4.30;44.80;;;;;;4955099;28;20031;-74
2022/03/06 06:21:49;;;;;;;19.08;9.57;;;4.30;44.80;;;;;;4954954;28;20037;-77
2022/03/06 06:24:16;;;;;;;18.15;9.43;;;4.40;44.70;;;;;;4954950;28;20078;-78
2022/03/06 06:26:43;;;;;;;15.95;8.27;;;4.40;44.70;;;;;;4954588;28;20490;-74
2022/03/06 06:29:09;;;;;;;15.70;8.43;;;4.50;44.70;;;;;;4954923;28;20054;-78
2022/03/06 06:31:35;;;;;;;17.45;8.70;;;4.50;44.70;;;;;;4955017;28;20012;-81
2022/03/06 06:34:01;;;;;;;14.77;7.85;;;4.60;44.70;;;;;;4954880;28;20050;-79
2022/03/06 06:36:27;;;;;;;17.02;9.23;;;4.70;44.90;;;;;;4954707;28;20098;-76
2022/03/06 06:38:53;;;;;;;23.85;9.68;;;4.70;44.60;;;;;;4954362;28;20031;-81
2022/03/06 06:41:19;;;;;;;17.77;9.82;;;4.80;44.30;;;;;;4969635;28;20478;-76
2022/03/06 06:43:44;;;;;;;17.75;9.95;;;4.90;44.30;;;;;;4954835;28;20011;-75
2022/03/06 06:46:11;;;;;;;17.33;9.27;;;4.90;44.30;;;;;;4946252;28;20036;-77
2022/03/06 06:48:37;;;;;;;15.13;9.35;;;5.00;44.20;;;;;;4957747;28;20027;-75
2022/03/06 06:51:04;;;;;;;17.88;9.48;;;5.10;44.10;;;;;;4958787;28;20110;-78
2022/03/06 06:53:30;;;;;;;15.73;9.10;;;5.20;44.00;;;;;;4958773;28;20027;-76
2022/03/06 06:55:56;;;;;;;13.35;8.50;;;5.30;44.00;;;;;;4958453;28;20027;-82
2022/03/06 06:58:21;;;;;;;61.53;11.82;;;5.40;43.90;;;;;;4958430;28;20501;-79
2022/03/06 07:00:48;;;;;;;20.55;9.45;;;5.50;43.70;;;;;;4959219;28;20540;-77
2022/03/06 07:03:13;;;;;;;19.42;8.52;;;5.60;43.40;;;;;;4959234;28;20023;-74
2022/03/06 07:05:39;;;;;;;20.90;9.45;;;5.60;43.20;;;;;;4967427;28;20012;-76
2022/03/06 07:08:05;;;;;;;22.15;10.15;;;5.70;42.80;;;;;;4959981;28;20023;-73
2022/03/06 07:10:31;;;;;;;18.10;9.60;;;5.80;42.50;;;;;;4959857;28;20094;-81
2022/03/06 07:12:58;;;;;;;17.23;9.45;;;5.90;42.10;;;;;;4960048;28;20059;-76
2022/03/06 07:15:32;;;;;;;23.38;9.93;;;6.00;41.70;;;;;;4960105;28;20031;-77
2022/03/06 07:18:01;;;;;;;19.13;9.85;;;6.10;41.60;;;;;;4976202;28;20415;-75
2022/03/06 07:20:28;;;;;;;16.58;8.70;;;6.20;41.60;;;;;;4963299;28;20028;-78
2022/03/06 07:22:54;;;;;;;17.40;9.57;;;6.40;41.60;;;;;;4963540;28;20035;-74
2022/03/06 07:25:21;;;;;;;21.40;11.35;;;6.50;42.00;;;;;;4964243;28;20113;-76
2022/03/06 07:27:47;;;;;;;18.40;10.57;;;6.60;40.70;;;;;;4962645;28;20031;-78
2022/03/06 07:30:13;;;;;;;19.25;10.52;;;6.80;40.40;;;;;;4958522;28;20015;-81
2022/03/06 07:32:47;;;;;;;19.75;11.40;;;6.90;40.20;;;;;;4958274;28;20106;-77
2022/03/06 07:35:14;;;;;;;22.17;10.90;;;7.00;39.70;;;;;;4973702;28;20011;-75
2022/03/06 07:37:40;;;;;;;19.48;9.75;;;7.10;39.50;;;;;;4958276;28;20086;-81
2022/03/06 07:40:07;;;;;;;19.50;10.80;;;7.20;39.50;;;;;;4972790;28;20022;-82
2022/03/06 07:42:33;;;;;;;20.65;11.32;;;7.30;39.00;;;;;;4958154;28;20051;-80
2022/03/06 07:44:59;;;;;;;18.75;10.93;;;7.40;38.70;;;;;;4958238;28;20426;-77
2022/03/06 07:47:25;;;;;;;17.33;9.38;;;7.40;38.80;;;;;;4957850;28;20027;-80
2022/03/06 07:49:51;;;;;;;17.67;10.65;;;7.50;38.80;;;;;;4957356;28;20593;-79
2022/03/06 07:52:17;;;;;;;17.50;10.43;;;7.60;38.60;;;;;;4957480;28;20028;-76
2022/03/06 07:54:43;;;;;;;19.00;10.98;;;7.60;38.30;;;;;;4958037;28;20102;-77
2022/03/06 07:57:08;;;;;;;19.15;10.50;;;7.70;38.10;;;;;;4957496;28;20075;-80
2022/03/06 07:59:37;;;;;;;19.95;11.07;;;7.80;37.90;;;;;;4957329;28;20031;-79
2022/03/06 08:02:04;;;;;;;18.88;11.02;;;7.80;37.90;;;;;;4972108;28;20511;-82
2022/03/06 08:04:29;;;;;;;21.58;11.73;;;7.90;38.10;;;;;;4955085;28;20113;-77
2022/03/06 08:06:55;;;;;;;26.45;11.23;;;8.00;37.80;;;;;;4956993;28;20110;-76
2022/03/06 08:09:24;;;;;;;21.58;10.80;;;8.00;37.80;;;;;;4953064;28;20035;-77
2022/03/06 08:11:50;;;;;;;19.73;11.05;;;8.10;37.70;;;;;;4972905;28;20019;-80
2022/03/06 08:14:16;;;;;;;19.80;11.70;;;8.20;37.80;;;;;;4966278;28;20384;-79
2022/03/06 08:16:42;;;;;;;20.30;11.57;;;8.30;37.80;;;;;;4962262;28;20094;-79
2022/03/06 08:19:07;;;;;;;29.98;12.63;;;8.30;37.60;;;;;;4946144;28;20027;-78
2022/03/06 08:21:33;;;;;;;23.67;12.85;;;8.40;37.20;;;;;;4957726;28;20093;-78
2022/03/06 08:23:59;;;;;;;24.80;13.77;;;8.50;36.90;;;;;;4969824;28;20027;-75
2022/03/06 08:26:25;;;;;;;26.13;14.13;;;8.50;36.90;;;;;;4963778;28;20413;-77
2022/03/06 08:28:51;;;;;;;21.77;12.88;;;8.60;36.80;;;;;;4976624;28;20019;-77
2022/03/06 08:31:17;;;;;;;23.98;13.48;;;8.70;36.80;;;;;;4968156;28;20023;-78
2022/03/06 08:33:43;;;;;;;24.70;13.90;;;8.80;36.70;;;;;;4968369;28;20023;-78
2022/03/06 08:36:09;;;;;;;20.35;12.05;;;8.90;36.30;;;;;;4967482;28;20028;-80
2022/03/06 08:38:34;;;;;;;21.77;12.55;;;8.90;36.50;;;;;;4956603;28;20027;-78
2022/03/06 08:41:00;;;;;;;19.80;12.43;;;9.10;36.30;;;;;;4960391;28;20031;-76
2022/03/06 08:43:26;;;;;;;22.75;12.40;;;9.20;36.00;;;;;;4964092;28;20031;-78
2022/03/06 08:45:52;;;;;;;18.75;11.85;;;9.30;35.80;;;;;;4966505;28;20083;-80
2022/03/06 08:48:17;;;;;;;20.83;11.60;;;9.40;36.10;;;;;;4960105;28;20034;-75
2022/03/06 08:50:43;;;;;;;21.10;10.82;;;9.60;35.90;;;;;;4966163;28;20026;-78
2022/03/06 08:53:09;;;;;;;19.20;12.07;;;9.70;35.40;;;;;;4956926;28;20054;-76
2022/03/06 08:55:35;;;;;;;18.08;11.25;;;9.80;35.40;;;;;;4965292;28;20497;-75
2022/03/06 08:58:01;;;;;;;22.42;12.45;;;9.90;35.20;;;;;;4971346;28;20051;-82
2022/03/06 09:00:26;;;;;;;20.77;12.35;;;10.00;34.50;;;;;;4960939;28;20023;-80
2022/03/06 09:02:52;;;;;;;18.52;11.95;;;10.10;34.50;;;;;;4982096;28;20062;-77
2022/03/06 09:05:21;;;;;;;19.45;11.93;;;10.10;33.90;;;;;;4964756;28;20023;-80
2022/03/06 09:07:47;;;;;;;20.00;11.73;;;10.20;34.00;;;;;;4955859;28;20460;-79
2022/03/06 09:10:13;;;;;;;20.30;12.15;;;10.20;33.50;;;;;;4971145;28;20047;-77
2022/03/06 09:12:39;;;;;;;17.42;11.15;;;10.20;33.80;;;;;;4966992;28;20026;-80
2022/03/06 09:15:07;;;;;;;16.33;10.05;;;10.20;33.80;;;;;;4965764;28;20102;-82
2022/03/06 09:17:33;;;;;;;16.23;9.90;;;10.30;33.60;;;;;;4963882;28;20054;-77
2022/03/06 09:19:58;;;;;;;18.85;10.85;;;10.40;33.50;;;;;;4971272;28;20742;-76
2022/03/06 09:22:24;;;;;;;19.55;11.18;;;10.40;33.10;;;;;;4960591;28;20019;-74
2022/03/06 09:24:50;;;;;;;17.60;10.68;;;10.40;32.90;;;;;;4978488;28;20023;-76
2022/03/06 09:27:16;;;;;;;17.77;10.15;;;10.50;32.80;;;;;;4967791;28;20478;-77
2022/03/06 09:29:41;;;;;;;20.52;11.15;;;10.50;32.60;;;;;;4955990;28;20027;-78
2022/03/06 09:32:07;;;;;;;18.98;10.82;;;10.60;32.30;;;;;;4959170;28;20118;-80
2022/03/06 09:34:33;;;;;;;18.75;10.90;;;10.70;32.20;;;;;;4964491;28;20022;-77
2022/03/06 09:36:59;;;;;;;17.42;10.68;;;10.70;32.20;;;;;;4959098;28;20031;-76
2022/03/06 09:39:25;;;;;;;17.25;10.40;;;10.90;32.70;;;;;;4956008;28;20031;-81
2022/03/06 09:41:54;;;;;;;19.73;11.02;;;11.00;32.20;;;;;;4969795;28;20027;-77
2022/03/06 09:44:24;;;;;;;17.35;9.88;;;11.10;31.70;;;;;;4956835;28;20027;-78
2022/03/06 09:46:52;;;;;;;17.77;10.18;;;11.30;31.80;;;;;;4955738;28;20027;-79
2022/03/06 09:49:18;;;;;;;25.15;13.73;;;11.40;31.20;;;;;;4955657;28;20031;-81
2022/03/06 09:51:44;;;;;;;26.17;14.80;;;11.50;31.20;;;;;;4955641;28;20023;-75
2022/03/06 09:54:12;;;;;;;21.05;12.93;;;11.60;31.10;;;;;;4956773;28;20432;-81
2022/03/06 09:56:40;;;;;;;19.20;11.55;;;11.60;30.60;;;;;;4965859;28;20051;-84
2022/03/06 09:59:06;;;;;;;16.95;10.43;;;11.60;30.40;;;;;;4981617;28;20121;-79
2022/03/06 10:01:32;;;;;;;16.33;9.75;;;11.70;30.70;;;;;;4955651;28;20020;-82
2022/03/06 10:03:58;;;;;;;17.45;10.23;;;11.70;30.90;;;;;;4969092;28;20038;-75
2022/03/06 10:06:23;;;;;;;16.25;9.68;;;11.80;30.50;;;;;;4974508;28;20030;-80
2022/03/06 10:09:05;;;;;;;19.55;10.10;;;11.90;30.40;;;;;;4963581;28;20023;-78
2022/03/06 10:11:31;;;;;;;14.32;8.98;;;11.90;30.20;;;;;;4971262;28;20050;-77
2022/03/06 10:13:57;;;;;;;14.45;9.38;;;12.00;30.10;;;;;;4958672;28;20383;-80
2022/03/06 10:16:23;;;;;;;17.73;9.30;;;12.10;30.00;;;;;;4963630;28;20035;-81
2022/03/06 10:18:54;;;;;;;17.75;9.63;;;12.10;30.10;;;;;;4953852;28;20031;-78
2022/03/06 10:21:28;;;;;;;15.13;9.48;;;12.10;29.60;;;;;;4964666;28;20027;-82
2022/03/06 10:23:56;;;;;;;15.80;9.23;;;12.10;29.40;;;;;;4962683;28;20043;-74
2022/03/06 10:26:27;;;;;;;16.75;8.75;;;12.20;29.70;;;;;;4953117;28;20027;-81
2022/03/06 10:28:59;;;;;;;17.02;8.95;;;12.20;29.20;;;;;;4953069;28;20030;-77
2022/03/06 10:31:30;;;;;;;15.48;7.75;;;12.20;29.20;;;;;;4953073;28;20051;-75
2022/03/06 10:34:10;;;;;;;14.10;8.32;;;12.30;29.10;;;;;;4953531;28;20016;-81
2022/03/06 10:36:44;;;;;;;14.75;8.18;;;12.30;28.90;;;;;;4947141;28;20027;-77
2022/03/06 10:39:21;;;;;;;14.75;8.70;;;12.30;28.70;;;;;;4939101;28;20019;-81
2022/03/06 10:41:53;;;;;;;15.63;8.32;;;12.40;28.50;;;;;;4953985;28;20056;-80
2022/03/06 10:44:21;;;;;;;13.55;8.27;;;12.40;28.50;;;;;;4954919;28;20024;-78
2022/03/06 10:47:05;;;;;;;14.00;8.02;;;12.50;28.00;;;;;;4954418;28;20113;-76
2022/03/06 10:49:32;;;;;;;13.95;7.78;;;12.50;27.40;;;;;;4955100;28;20020;-79
2022/03/06 10:52:13;;;;;;;16.55;8.82;;;12.40;27.10;;;;;;4967839;28;20035;-77
2022/03/06 10:54:52;;;;;;;14.57;8.25;;;12.40;27.50;;;;;;4949313;28;20103;-76
2022/03/06 10:57:22;;;;;;;16.75;8.77;;;12.30;27.60;;;;;;4950741;28;20575;-76
2022/03/06 10:59:49;;;;;;;14.93;8.85;;;12.30;27.60;;;;;;4964242;28;20540;-77
2022/03/06 11:02:15;;;;;;;15.82;8.15;;;12.30;27.80;;;;;;4957635;28;20022;-74
2022/03/06 11:04:46;;;;;;;14.63;8.77;;;12.30;27.80;;;;;;4973780;28;20027;-78
2022/03/06 11:07:13;;;;;;;15.43;8.98;;;12.30;27.50;;;;;;4973900;28;20029;-75
2022/03/06 11:09:39;;;;;;;12.40;7.63;;;12.20;27.60;;;;;;4975739;28;20381;-80
2022/03/06 11:12:06;;;;;;;17.77;9.95;;;12.10;27.70;;;;;;4954325;28;20537;-77
2022/03/06 11:14:32;;;;;;;18.02;10.10;;;12.00;27.40;;;;;;4955491;28;20024;-76
2022/03/06 11:16:59;;;;;;;13.50;8.85;;;11.90;27.60;;;;;;4958787;28;20024;-74
2022/03/06 11:19:27;;;;;;;18.33;10.35;;;11.90;27.90;;;;;;4955261;28;20469;-78
2022/03/06 11:22:34;;;;;;;18.73;9.93;;;11.70;27.70;;;;;;4954827;28;20042;-78
2022/03/06 11:25:07;;;;;;;16.50;10.80;;;11.60;28.20;;;;;;4954142;28;20083;-79
2022/03/06 11:27:51;;;;;;;16.08;9.02;;;11.50;28.20;;;;;;4952073;28;20051;-76
2022/03/06 11:30:20;;;;;;;16.15;9.43;;;11.40;28.20;;;;;;4960845;28;20385;-77
2022/03/06 11:32:59;;;;;;;16.83;10.73;;;11.30;28.30;;;;;;4959075;28;20428;-77
2022/03/06 11:35:31;;;;;;;15.70;9.57;;;11.30;28.50;;;;;;4965434;28;21048;-77
2022/03/06 11:37:58;;;;;;;16.88;9.38;;;11.20;28.30;;;;;;4964140;28;20020;-76
2022/03/06 11:40:45;;;;;;;15.35;9.00;;;11.20;28.40;;;;;;4971569;28;20058;-73
2022/03/06 11:43:32;;;;;;;15.82;9.35;;;11.10;28.40;;;;;;4972312;28;20031;-77
2022/03/06 11:46:03;;;;;;;12.48;8.15;;;11.10;28.20;;;;;;4955955;28;20081;-76
2022/03/06 11:48:32;;;;;;;16.95;9.45;;;11.10;28.40;;;;;;4956901;28;20023;-75
2022/03/06 11:51:22;;;;;;;18.63;10.05;;;11.10;28.40;;;;;;4957234;28;20389;-77
2022/03/06 11:54:02;;;;;;;16.25;10.02;;;11.20;28.80;;;;;;4957250;28;20030;-75
2022/03/06 11:56:31;;;;;;;18.73;10.93;;;11.20;28.50;;;;;;4963756;28;20058;-75
2022/03/06 11:59:16;;;;;;;19.05;11.70;;;11.20;28.30;;;;;;4970331;28;20046;-75
2022/03/06 12:02:10;;;;;;;17.38;10.82;;;11.30;28.40;;;;;;4955434;28;20511;-81
2022/03/06 12:04:47;;;;;;;16.67;8.97;;;11.40;28.80;;;;;;4955922;28;20039;-73
2022/03/06 12:07:14;;;;;;;15.38;9.80;;;11.50;28.10;;;;;;4956438;28;20031;-76
2022/03/06 12:09:42;;;;;;;13.07;7.97;;;11.50;27.80;;;;;;4957097;28;20023;-77
2022/03/06 12:12:16;;;;;;;15.68;9.95;;;11.50;27.80;;;;;;4957253;28;20026;-76
2022/03/06 12:14:44;;;;;;;;;;;11.50;27.80;;;;;;4957330;28;20038;-78
2022/03/06 12:17:11;;;;;;;20.10;8.20;;;11.50;28.60;;;;;;4957361;28;19903;-80
2022/03/06 12:19:42;;;;;;;14.05;8.35;;;11.50;27.80;;;;;;4957730;28;20054;-76
2022/03/06 12:22:13;;;;;;;18.52;10.65;;;11.50;27.70;;;;;;4959240;28;20051;-75
2022/03/06 12:24:42;;;;;;;14.35;8.25;;;11.50;27.30;;;;;;4966370;28;20105;-76
2022/03/06 12:27:10;;;;;;;14.80;9.10;;;11.40;27.40;;;;;;4956619;28;20066;-78
2022/03/06 12:29:48;;;;;;;14.60;8.57;;;11.50;27.70;;;;;;4958446;28;20110;-77
2022/03/06 12:32:31;;;;;;;15.02;9.00;;;11.50;27.70;;;;;;4973918;28;20018;-75
2022/03/06 12:35:05;;;;;;;18.05;9.73;;;11.50;27.60;;;;;;4958929;28;20106;-77
2022/03/06 12:37:49;;;;;;;13.75;8.68;;;11.60;27.70;;;;;;4964387;28;20024;-80
2022/03/06 12:40:17;;;;;;;14.50;8.48;;;11.60;27.50;;;;;;4947858;28;20435;-80
2022/03/06 12:42:45;;;;;;;18.23;9.10;;;11.70;27.80;;;;;;4937419;29;20082;-76